Time;durP1;ratioP1;P1;durP2;ratioP2;P2;SDS_P1;SDS_P2;PMS_P1;PMS_P2;Temp;Humidity;BMP_temperature;BMP_pressure;BME280_temperature;BME280_humidity;BME280_pressure;Samples;Min_cycle;Max_cycle;Signal;HPM_P1;HPM_P2
2021/11/16 00:01:13;;;;;;;11.15;8.68;;;;;;;;;;5025619;28;20252;-50
2021/11/16 00:03:39;;;;;;;11.32;9.15;;;;;;;;;;5032849;28;20278;-51
2021/11/16 00:06:06;;;;;;;10.73;8.48;;;;;;;;;;5033136;28;20160;-50
2021/11/16 00:08:32;;;;;;;10.52;8.63;;;;;;;;;;5033282;28;20241;-50
2021/11/16 00:10:58;;;;;;;10.15;8.30;;;;;;;;;;5033584;28;20608;-49
2021/11/16 00:13:24;;;;;;;11.57;8.80;;;;;;;;;;5032945;28;20192;-50
2021/11/16 00:15:50;;;;;;;12.27;8.43;;;;;;;;;;5033146;28;20405;-49
2021/11/16 00:18:18;;;;;;;11.43;9.00;;;;;;;;;;5014369;28;20630;-49
2021/11/16 00:20:45;;;;;;;10.00;8.52;;;;;;;;;;5032896;28;20282;-50
2021/11/16 00:23:17;;;;;;;12.00;8.63;;;;;;;;;;5032071;28;20180;-50
2021/11/16 00:25:44;;;;;;;9.75;7.97;;;;;;;;;;5020568;28;20215;-49
2021/11/16 00:28:11;;;;;;;10.00;8.25;;;;;;;;;;5030668;28;20184;-49
2021/11/16 00:30:38;;;;;;;11.38;8.57;;;;;;;;;;5033360;28;20603;-50
2021/11/16 00:33:05;;;;;;;11.18;8.57;;;;;;;;;;5025941;28;20179;-49
2021/11/16 00:35:31;;;;;;;10.57;8.50;;;;;;;;;;5016712;28;20195;-50
2021/11/16 00:37:57;;;;;;;11.90;8.73;;;;;;;;;;5032528;28;20184;-49
2021/11/16 00:40:23;;;;;;;11.32;9.10;;;;;;;;;;5033273;28;20168;-49
2021/11/16 00:42:50;;;;;;;11.40;9.52;;;;;;;;;;5031806;28;20444;-50
2021/11/16 00:45:17;;;;;;;9.98;8.38;;;;;;;;;;5033238;28;20195;-49
2021/11/16 00:47:43;;;;;;;12.57;9.10;;;;;;;;;;5031795;28;20188;-50
2021/11/16 00:50:10;;;;;;;10.10;8.20;;;;;;;;;;5024123;28;20208;-50
2021/11/16 00:52:36;;;;;;;11.85;8.75;;;;;;;;;;5013364;28;20176;-49
2021/11/16 00:55:02;;;;;;;10.63;8.60;;;;;;;;;;5029046;28;20191;-50
2021/11/16 00:57:28;;;;;;;11.38;8.68;;;;;;;;;;5032491;28;20180;-49
2021/11/16 00:59:54;;;;;;;10.43;8.65;;;;;;;;;;5034101;28;20190;-49
2021/11/16 01:02:20;;;;;;;11.50;8.73;;;;;;;;;;5036042;28;20257;-49
2021/11/16 01:04:49;;;;;;;11.10;8.88;;;;;;;;;;5035575;28;20207;-49
2021/11/16 01:07:16;;;;;;;10.93;8.77;;;;;;;;;;5035267;28;20176;-49
2021/11/16 01:09:42;;;;;;;11.13;8.52;;;;;;;;;;5036216;28;20184;-50
2021/11/16 01:12:08;;;;;;;11.25;8.93;;;;;;;;;;5036717;28;20226;-49
2021/11/16 01:14:35;;;;;;;9.57;8.02;;;;;;;;;;5035413;28;20184;-50
2021/11/16 01:17:01;;;;;;;11.43;8.77;;;;;;;;;;5036452;28;20263;-49
2021/11/16 01:19:27;;;;;;;8.90;7.80;;;;;;;;;;5036274;28;20187;-49
2021/11/16 01:21:53;;;;;;;10.75;8.88;;;;;;;;;;5036297;28;20188;-49
2021/11/16 01:24:19;;;;;;;10.98;8.75;;;;;;;;;;5034959;28;20203;-49
2021/11/16 01:26:46;;;;;;;11.18;8.75;;;;;;;;;;5036229;28;20535;-48
2021/11/16 01:29:12;;;;;;;11.23;8.82;;;;;;;;;;5035850;28;20253;-49
2021/11/16 01:31:38;;;;;;;11.55;8.85;;;;;;;;;;5036375;28;20164;-49
2021/11/16 01:34:06;;;;;;;12.90;9.20;;;;;;;;;;5035679;28;20202;-49
2021/11/16 01:36:32;;;;;;;10.10;7.97;;;;;;;;;;5036259;28;20238;-49
2021/11/16 01:38:59;;;;;;;11.27;8.98;;;;;;;;;;5035570;28;20172;-50
2021/11/16 01:41:25;;;;;;;10.35;8.60;;;;;;;;;;5016264;28;20552;-49
2021/11/16 01:43:52;;;;;;;11.63;8.60;;;;;;;;;;5015736;28;20207;-49
2021/11/16 01:46:19;;;;;;;11.73;8.80;;;;;;;;;;5030021;28;20194;-49
2021/11/16 01:48:49;;;;;;;10.13;8.65;;;;;;;;;;5035746;28;20215;-49
2021/11/16 01:51:15;;;;;;;11.00;8.75;;;;;;;;;;5035193;28;20176;-49
2021/11/16 01:53:42;;;;;;;12.57;9.43;;;;;;;;;;5035138;28;20188;-49
2021/11/16 01:56:08;;;;;;;11.75;8.82;;;;;;;;;;5034208;28;20225;-49
2021/11/16 01:58:34;;;;;;;11.73;8.85;;;;;;;;;;5035403;28;20563;-48
2021/11/16 02:01:03;;;;;;;10.75;8.50;;;;;;;;;;5035177;28;20199;-50
2021/11/16 02:03:29;;;;;;;10.63;8.18;;;;;;;;;;5028410;28;20233;-48
2021/11/16 02:06:13;;;;;;;10.38;8.07;;;;;;;;;;5035010;28;20505;-49
2021/11/16 02:08:39;;;;;;;11.15;8.50;;;;;;;;;;5035788;28;20168;-50
2021/11/16 02:11:05;;;;;;;11.68;8.57;;;;;;;;;;5033712;28;20222;-49
2021/11/16 02:13:31;;;;;;;11.15;9.13;;;;;;;;;;5034083;28;20187;-49
2021/11/16 02:15:58;;;;;;;11.50;8.55;;;;;;;;;;5035441;28;20218;-49
2021/11/16 02:18:24;;;;;;;10.48;8.32;;;;;;;;;;5035737;28;20203;-49
2021/11/16 02:20:51;;;;;;;11.57;9.02;;;;;;;;;;5035301;28;20175;-48
2021/11/16 02:23:17;;;;;;;11.80;8.77;;;;;;;;;;5034943;28;20199;-49
2021/11/16 02:25:45;;;;;;;11.82;9.02;;;;;;;;;;5034372;28;20579;-50
2021/11/16 02:28:11;;;;;;;11.80;8.88;;;;;;;;;;5035164;28;20203;-50
2021/11/16 02:30:37;;;;;;;10.48;8.25;;;;;;;;;;5032515;28;20225;-49
2021/11/16 02:33:03;;;;;;;10.48;8.73;;;;;;;;;;5034495;28;20254;-49
2021/11/16 02:35:29;;;;;;;10.98;8.75;;;;;;;;;;5034954;28;20258;-50
2021/11/16 02:37:56;;;;;;;11.48;8.77;;;;;;;;;;5034765;28;20187;-49
2021/11/16 02:40:23;;;;;;;12.10;8.82;;;;;;;;;;5034695;28;20418;-48
2021/11/16 02:42:49;;;;;;;12.77;9.13;;;;;;;;;;5034384;28;20172;-50
2021/11/16 02:45:17;;;;;;;13.45;8.98;;;;;;;;;;5034371;28;20207;-48
2021/11/16 02:47:43;;;;;;;12.15;8.93;;;;;;;;;;5032742;28;20188;-50
2021/11/16 02:50:09;;;;;;;12.20;8.82;;;;;;;;;;5034084;28;20184;-48
2021/11/16 02:52:36;;;;;;;11.57;8.90;;;;;;;;;;5034519;28;20178;-49
2021/11/16 02:55:03;;;;;;;12.52;9.48;;;;;;;;;;5034187;28;20194;-50
2021/11/16 02:57:29;;;;;;;12.18;9.02;;;;;;;;;;5034512;28;20274;-50
2021/11/16 02:59:55;;;;;;;13.30;9.30;;;;;;;;;;5033758;28;20258;-49
2021/11/16 03:02:21;;;;;;;12.63;9.05;;;;;;;;;;5033603;28;20231;-48
2021/11/16 03:04:47;;;;;;;11.40;8.55;;;;;;;;;;5033438;28;20265;-50
2021/11/16 03:07:15;;;;;;;13.60;9.02;;;;;;;;;;5034155;28;20172;-49
2021/11/16 03:09:50;;;;;;;12.68;9.27;;;;;;;;;;5033778;28;20180;-50
2021/11/16 03:12:17;;;;;;;11.82;9.00;;;;;;;;;;5034209;28;20168;-49
2021/11/16 03:14:44;;;;;;;14.65;9.65;;;;;;;;;;5033080;28;20180;-48
2021/11/16 03:17:10;;;;;;;12.25;8.85;;;;;;;;;;5034193;28;20171;-50
2021/11/16 03:19:36;;;;;;;12.93;9.48;;;;;;;;;;5033906;28;20451;-49
2021/11/16 03:22:02;;;;;;;15.40;10.45;;;;;;;;;;5033321;28;20213;-49
2021/11/16 03:24:33;;;;;;;12.68;9.43;;;;;;;;;;5033304;28;20216;-49
2021/11/16 03:27:00;;;;;;;12.52;9.23;;;;;;;;;;5033963;28;20195;-49
2021/11/16 03:29:26;;;;;;;12.57;9.18;;;;;;;;;;5020486;28;20176;-49
2021/11/16 03:32:03;;;;;;;12.07;8.90;;;;;;;;;;5033694;28;20266;-51
2021/11/16 03:34:29;;;;;;;13.40;9.35;;;;;;;;;;5033083;28;20183;-50
2021/11/16 03:36:55;;;;;;;12.50;9.00;;;;;;;;;;5033488;28;20191;-50
2021/11/16 03:39:21;;;;;;;12.98;9.45;;;;;;;;;;5033649;28;20506;-50
2021/11/16 03:41:47;;;;;;;13.23;9.35;;;;;;;;;;5034067;28;20759;-50
2021/11/16 03:44:13;;;;;;;14.00;9.48;;;;;;;;;;5033246;28;20326;-49
2021/11/16 03:46:39;;;;;;;12.75;8.88;;;;;;;;;;5033191;28;20622;-50
2021/11/16 03:49:06;;;;;;;12.85;9.63;;;;;;;;;;5033284;28;20859;-49
2021/11/16 03:51:32;;;;;;;11.80;9.23;;;;;;;;;;5033456;28;20210;-49
2021/11/16 03:53:58;;;;;;;12.85;9.23;;;;;;;;;;5032971;28;20175;-48
2021/11/16 03:56:24;;;;;;;13.30;10.20;;;;;;;;;;5033343;28;20599;-49
2021/11/16 03:58:50;;;;;;;11.60;8.77;;;;;;;;;;5033042;28;20275;-49
2021/11/16 04:01:17;;;;;;;13.93;9.90;;;;;;;;;;5033060;28;20284;-50
2021/11/16 04:03:43;;;;;;;12.80;9.23;;;;;;;;;;5032504;28;20232;-50
2021/11/16 04:06:11;;;;;;;14.93;10.10;;;;;;;;;;5033653;28;20164;-49
2021/11/16 04:08:38;;;;;;;12.80;9.20;;;;;;;;;;5033603;28;20167;-49
2021/11/16 04:11:04;;;;;;;13.05;9.43;;;;;;;;;;5031419;28;20250;-49
2021/11/16 04:13:31;;;;;;;13.60;9.75;;;;;;;;;;5030617;28;20214;-48
2021/11/16 04:15:57;;;;;;;14.25;9.90;;;;;;;;;;5033049;28;20184;-50
2021/11/16 04:18:23;;;;;;;14.60;10.10;;;;;;;;;;5033183;28;20172;-50
2021/11/16 04:20:53;;;;;;;12.77;9.00;;;;;;;;;;5032873;28;20175;-48
2021/11/16 04:23:19;;;;;;;13.85;10.00;;;;;;;;;;5032788;28;20175;-50
2021/11/16 04:25:46;;;;;;;13.90;9.80;;;;;;;;;;5028103;28;20204;-50
2021/11/16 04:28:12;;;;;;;10.38;8.68;;;;;;;;;;5015017;28;20180;-50
2021/11/16 04:30:38;;;;;;;13.43;9.50;;;;;;;;;;5032802;28;20453;-50
2021/11/16 04:33:05;;;;;;;13.20;9.63;;;;;;;;;;5032840;28;20227;-49
2021/11/16 04:35:32;;;;;;;13.60;9.93;;;;;;;;;;5035568;28;20539;-49
2021/11/16 04:37:59;;;;;;;13.10;9.45;;;;;;;;;;5037148;28;20187;-50
2021/11/16 04:40:32;;;;;;;13.82;9.20;;;;;;;;;;5035916;28;20201;-50
2021/11/16 04:43:00;;;;;;;13.32;9.32;;;;;;;;;;5031126;28;20263;-49
2021/11/16 04:45:26;;;;;;;13.27;9.65;;;;;;;;;;5024031;28;20571;-48
2021/11/16 04:48:04;;;;;;;9.98;8.02;;;;;;;;;;5036633;28;20179;-49
2021/11/16 04:50:56;;;;;;;12.38;9.75;;;;;;;;;;5036649;28;20183;-50
2021/11/16 05:04:18;;;;;;;11.52;9.35;;;;;;;;;;5035943;28;20222;-50
2021/11/16 05:06:44;;;;;;;13.35;8.95;;;;;;;;;;5036571;28;20168;-50
2021/11/16 05:09:11;;;;;;;13.15;9.50;;;;;;;;;;5036028;28;20218;-49
2021/11/16 05:11:37;;;;;;;16.85;10.10;;;;;;;;;;5036093;28;20599;-50
2021/11/16 05:14:03;;;;;;;17.60;10.82;;;;;;;;;;5035781;28;20307;-49
2021/11/16 05:16:29;;;;;;;24.50;11.80;;;;;;;;;;5036207;28;20254;-49
2021/11/16 05:18:55;;;;;;;31.05;13.88;;;;;;;;;;5036587;28;20286;-49
2021/11/16 05:21:21;;;;;;;36.40;14.68;;;;;;;;;;5035743;28;20551;-49
2021/11/16 05:23:54;;;;;;;39.47;15.43;;;;;;;;;;5035109;28;20184;-48
2021/11/16 05:26:21;;;;;;;36.35;14.88;;;;;;;;;;5036193;28;20769;-49
2021/11/16 05:28:47;;;;;;;38.13;16.67;;;;;;;;;;5036095;28;20626;-49
2021/11/16 05:31:13;;;;;;;41.60;16.20;;;;;;;;;;5036396;28;20475;-49
2021/11/16 05:33:39;;;;;;;50.10;18.38;;;;;;;;;;5035192;28;20223;-49
2021/11/16 05:36:06;;;;;;;46.70;18.33;;;;;;;;;;5035748;28;20188;-49
2021/11/16 05:38:33;;;;;;;39.38;17.02;;;;;;;;;;5036031;28;20551;-50
2021/11/16 05:40:59;;;;;;;50.70;18.50;;;;;;;;;;5035871;28;20585;-49
2021/11/16 05:43:26;;;;;;;44.67;18.15;;;;;;;;;;5035120;28;20195;-50
2021/11/16 05:45:53;;;;;;;45.45;16.80;;;;;;;;;;5035110;28;20501;-49
2021/11/16 05:48:21;;;;;;;41.75;17.25;;;;;;;;;;5035822;28;20176;-49
2021/11/16 05:50:47;;;;;;;50.00;18.92;;;;;;;;;;5035242;28;20172;-48
2021/11/16 05:53:15;;;;;;;51.03;19.10;;;;;;;;;;5035321;28;20188;-50
2021/11/16 05:55:41;;;;;;;46.38;18.23;;;;;;;;;;5035845;28;20301;-49
2021/11/16 05:58:07;;;;;;;51.47;18.90;;;;;;;;;;5035763;28;20176;-49
2021/11/16 06:00:35;;;;;;;46.38;18.70;;;;;;;;;;5034905;28;20190;-49
2021/11/16 06:03:01;;;;;;;43.17;18.60;;;;;;;;;;5034391;28;20192;-49
2021/11/16 06:05:27;;;;;;;47.33;20.08;;;;;;;;;;5027476;28;20204;-50
2021/11/16 06:07:53;;;;;;;41.20;18.08;;;;;;;;;;5015819;28;20184;-49
2021/11/16 06:10:19;;;;;;;42.53;18.40;;;;;;;;;;5024858;28;20583;-50
2021/11/16 06:12:45;;;;;;;46.88;18.85;;;;;;;;;;5035166;28;20179;-50
2021/11/16 06:15:11;;;;;;;41.38;17.50;;;;;;;;;;5035087;28;20519;-49
2021/11/16 06:17:40;;;;;;;40.95;17.85;;;;;;;;;;5035391;28;20210;-50
2021/11/16 06:20:06;;;;;;;44.03;18.58;;;;;;;;;;5023994;28;20267;-50
2021/11/16 06:22:32;;;;;;;40.53;18.70;;;;;;;;;;5028952;28;20190;-50
2021/11/16 06:24:58;;;;;;;40.60;17.67;;;;;;;;;;5034607;28;20637;-50
2021/11/16 06:27:24;;;;;;;42.20;18.80;;;;;;;;;;5035088;28;20187;-49
2021/11/16 06:29:50;;;;;;;39.92;17.83;;;;;;;;;;5035244;28;20221;-50
2021/11/16 06:32:16;;;;;;;41.63;17.38;;;;;;;;;;5034916;28;20180;-50
2021/11/16 06:34:42;;;;;;;36.15;16.92;;;;;;;;;;5019534;28;20184;-49
2021/11/16 06:37:08;;;;;;;37.08;17.38;;;;;;;;;;5032150;28;20242;-49
2021/11/16 06:39:34;;;;;;;41.67;17.77;;;;;;;;;;5035016;28;20234;-49
2021/11/16 06:42:01;;;;;;;35.33;17.20;;;;;;;;;;5034793;28;20211;-48
2021/11/16 06:44:27;;;;;;;38.55;17.17;;;;;;;;;;5033992;28;20219;-54
2021/11/16 06:46:55;;;;;;;36.10;16.58;;;;;;;;;;5034086;28;20195;-49
2021/11/16 06:49:21;;;;;;;38.42;17.08;;;;;;;;;;5028637;28;20749;-50
2021/11/16 06:51:49;;;;;;;36.17;16.08;;;;;;;;;;5033717;28;20241;-49
2021/11/16 06:54:17;;;;;;;36.33;15.35;;;;;;;;;;5025725;28;20172;-49
2021/11/16 06:56:45;;;;;;;36.25;16.95;;;;;;;;;;5033791;28;20233;-49
2021/11/16 06:59:11;;;;;;;36.78;16.27;;;;;;;;;;5018555;28;20629;-48
2021/11/16 07:01:37;;;;;;;33.97;15.88;;;;;;;;;;5032920;28;20571;-49
2021/11/16 07:04:08;;;;;;;31.48;15.45;;;;;;;;;;5033051;28;20212;-50
2021/11/16 07:06:35;;;;;;;29.80;14.90;;;;;;;;;;5034445;28;20171;-49
2021/11/16 07:09:01;;;;;;;34.60;15.65;;;;;;;;;;5034260;28;20808;-50
2021/11/16 07:11:27;;;;;;;28.67;14.15;;;;;;;;;;5034138;28;20168;-50
2021/11/16 07:14:01;;;;;;;31.38;14.90;;;;;;;;;;5021643;28;20208;-49
2021/11/16 07:16:31;;;;;;;32.95;15.00;;;;;;;;;;5033941;28;20178;-49
2021/11/16 07:18:59;;;;;;;26.23;13.90;;;;;;;;;;5034369;28;20171;-49
2021/11/16 07:21:26;;;;;;;29.52;14.10;;;;;;;;;;5033979;28;20164;-50
2021/11/16 07:24:09;;;;;;;28.10;13.10;;;;;;;;;;5033317;28;20972;-50
2021/11/16 07:26:39;;;;;;;29.27;13.88;;;;;;;;;;5032966;28;20183;-50
2021/11/16 07:29:07;;;;;;;29.95;13.07;;;;;;;;;;5034049;28;20283;-50
2021/11/16 07:31:36;;;;;;;27.98;14.00;;;;;;;;;;5033808;28;20225;-49
2021/11/16 07:34:18;;;;;;;28.38;13.48;;;;;;;;;;5033280;28;20168;-50
2021/11/16 07:37:04;;;;;;;26.20;13.30;;;;;;;;;;5033341;28;20265;-50
2021/11/16 07:39:31;;;;;;;26.63;12.98;;;;;;;;;;5032045;28;20184;-50
2021/11/16 07:42:08;;;;;;;26.55;13.48;;;;;;;;;;5032975;28;20179;-49
2021/11/16 07:44:34;;;;;;;24.92;13.48;;;;;;;;;;5032434;28;20225;-49
2021/11/16 07:47:00;;;;;;;23.88;12.05;;;;;;;;;;5025889;28;20183;-50
2021/11/16 07:49:26;;;;;;;24.40;13.13;;;;;;;;;;5032175;28;20187;-50
2021/11/16 07:51:53;;;;;;;27.45;12.48;;;;;;;;;;5031477;28;20176;-50
2021/11/16 07:54:27;;;;;;;23.33;11.63;;;;;;;;;;5029545;28;20190;-50
2021/11/16 07:56:54;;;;;;;23.92;12.43;;;;;;;;;;5012497;28;20171;-48
2021/11/16 07:59:23;;;;;;;20.35;11.18;;;;;;;;;;5032782;28;20482;-48
2021/11/16 08:07:11;;;;;;;20.05;11.90;;;;;;;;;;5032817;28;20266;-49
2021/11/16 08:09:50;;;;;;;21.23;11.48;;;;;;;;;;5023762;28;20440;-49
2021/11/16 08:14:46;;;;;;;25.67;11.43;;;;;;;;;;5037339;28;20184;-50
2021/11/16 08:17:13;;;;;;;21.65;10.63;;;;;;;;;;5037172;28;20444;-50
2021/11/16 08:19:40;;;;;;;16.95;10.13;;;;;;;;;;5037551;28;20176;-50
2021/11/16 08:22:10;;;;;;;23.83;10.70;;;;;;;;;;5037115;28;20180;-50
2021/11/16 08:24:37;;;;;;;20.27;10.52;;;;;;;;;;5019251;28;20714;-50
2021/11/16 08:27:08;;;;;;;19.35;10.07;;;;;;;;;;5028411;28;20540;-48
2021/11/16 08:29:38;;;;;;;19.60;10.63;;;;;;;;;;5036313;28;20176;-49
2021/11/16 08:32:11;;;;;;;20.13;10.25;;;;;;;;;;5036986;28;20182;-50
2021/11/16 08:34:39;;;;;;;21.65;10.35;;;;;;;;;;5036863;28;20210;-50
2021/11/16 08:37:06;;;;;;;23.25;10.25;;;;;;;;;;5035935;28;20234;-49
2021/11/16 08:39:53;;;;;;;20.92;9.75;;;;;;;;;;5036723;28;20266;-50
2021/11/16 08:42:23;;;;;;;17.40;9.52;;;;;;;;;;5037168;28;20270;-50
2021/11/16 08:45:21;;;;;;;16.00;9.70;;;;;;;;;;5035975;28;20200;-49
2021/11/16 08:47:52;;;;;;;19.77;9.52;;;;;;;;;;5025022;28;20319;-50
2021/11/16 08:50:29;;;;;;;15.75;9.45;;;;;;;;;;5035981;28;20183;-50
2021/11/16 08:52:56;;;;;;;18.90;9.43;;;;;;;;;;5035630;28;20183;-50
2021/11/16 08:55:28;;;;;;;17.35;9.10;;;;;;;;;;5036128;28;20192;-50
2021/11/16 08:57:54;;;;;;;17.40;9.63;;;;;;;;;;5035826;28;20501;-50
2021/11/16 09:00:24;;;;;;;17.63;9.32;;;;;;;;;;5036259;28;20175;-49
2021/11/16 09:02:52;;;;;;;15.73;9.05;;;;;;;;;;5035843;28;20235;-50
2021/11/16 09:05:19;;;;;;;14.02;8.88;;;;;;;;;;5035936;28;20205;-50
2021/11/16 09:07:49;;;;;;;16.42;9.10;;;;;;;;;;5036207;28;20168;-50
2021/11/16 09:10:16;;;;;;;16.20;9.48;;;;;;;;;;5030799;28;20813;-50
2021/11/16 09:12:50;;;;;;;13.93;8.35;;;;;;;;;;5018112;28;20184;-50
2021/11/16 09:15:22;;;;;;;16.48;8.70;;;;;;;;;;5031088;28;20232;-50
2021/11/16 09:17:48;;;;;;;12.88;8.65;;;;;;;;;;5035810;28;20215;-50
2021/11/16 09:20:16;;;;;;;13.10;7.70;;;;;;;;;;5035120;28;20195;-50
2021/11/16 09:22:43;;;;;;;12.10;8.30;;;;;;;;;;5034432;28;20187;-49
2021/11/16 09:25:26;;;;;;;17.95;8.52;;;;;;;;;;5035108;28;20229;-49
2021/11/16 09:28:03;;;;;;;11.85;7.97;;;;;;;;;;5034387;28;20179;-49
2021/11/16 09:30:38;;;;;;;12.82;7.72;;;;;;;;;;5030146;28;20184;-50
2021/11/16 09:33:21;;;;;;;12.65;7.90;;;;;;;;;;5035205;28;20211;-49
2021/11/16 09:35:53;;;;;;;13.15;7.82;;;;;;;;;;5035616;28;20187;-50
2021/11/16 09:38:59;;;;;;;14.52;8.07;;;;;;;;;;5035469;28;20172;-49
2021/11/16 09:41:27;;;;;;;13.82;7.85;;;;;;;;;;5029344;28;20284;-49
2021/11/16 09:43:57;;;;;;;11.88;7.65;;;;;;;;;;5032056;28;20276;-50
2021/11/16 09:46:24;;;;;;;11.40;7.38;;;;;;;;;;5032336;28;20191;-50
2021/11/16 09:49:00;;;;;;;11.63;6.97;;;;;;;;;;5033811;28;20180;-53
2021/11/16 09:51:27;;;;;;;10.18;7.20;;;;;;;;;;5035261;28;20251;-49
2021/11/16 09:54:02;;;;;;;12.27;7.72;;;;;;;;;;5033557;28;20198;-49
2021/11/16 09:56:29;;;;;;;11.35;7.50;;;;;;;;;;5034622;28;20167;-49
2021/11/16 09:58:56;;;;;;;11.30;7.40;;;;;;;;;;5034400;28;20229;-49
2021/11/16 10:01:24;;;;;;;11.25;7.05;;;;;;;;;;5033066;28;20539;-49
2021/11/16 10:03:52;;;;;;;11.57;7.35;;;;;;;;;;5032883;28;20199;-50
2021/11/16 10:06:18;;;;;;;10.63;6.85;;;;;;;;;;5029609;28;20207;-50
2021/11/16 10:08:44;;;;;;;11.90;7.13;;;;;;;;;;5040640;28;20605;-50
2021/11/16 10:11:10;;;;;;;9.73;6.78;;;;;;;;;;5034038;28;20540;-49
2021/11/16 10:13:37;;;;;;;13.57;6.88;;;;;;;;;;5034862;28;20254;-50
2021/11/16 10:16:04;;;;;;;15.32;7.28;;;;;;;;;;5034151;28;20179;-50
2021/11/16 10:18:37;;;;;;;11.50;7.10;;;;;;;;;;5034234;28;20222;-49
2021/11/16 10:21:04;;;;;;;12.23;7.80;;;;;;;;;;5036042;28;20448;-49
2021/11/16 10:23:33;;;;;;;12.07;7.63;;;;;;;;;;5035743;28;20257;-50
2021/11/16 10:25:59;;;;;;;12.18;7.30;;;;;;;;;;5034620;28;20257;-50
2021/11/16 10:28:26;;;;;;;11.50;7.38;;;;;;;;;;5035246;28;20259;-49
2021/11/16 10:30:58;;;;;;;13.52;8.15;;;;;;;;;;5054891;28;20549;-50
2021/11/16 10:33:27;;;;;;;12.95;7.32;;;;;;;;;;5042565;28;20605;-50
2021/11/16 10:35:53;;;;;;;11.00;7.53;;;;;;;;;;5033658;28;20246;-49
2021/11/16 10:38:44;;;;;;;10.32;6.75;;;;;;;;;;5034694;28;20551;-50
2021/11/16 10:41:12;;;;;;;12.05;7.07;;;;;;;;;;5033709;28;20199;-49
2021/11/16 10:43:51;;;;;;;12.23;7.65;;;;;;;;;;5014293;28;20523;-50
2021/11/16 10:46:18;;;;;;;11.93;7.10;;;;;;;;;;5033974;28;20274;-50
2021/11/16 10:48:45;;;;;;;11.43;7.60;;;;;;;;;;5033281;28;20217;-50
2021/11/16 10:51:12;;;;;;;11.75;7.63;;;;;;;;;;5033114;28;20186;-50
2021/11/16 10:53:41;;;;;;;10.30;6.43;;;;;;;;;;5033835;28;20249;-49
2021/11/16 10:56:08;;;;;;;13.60;6.85;;;;;;;;;;5027801;28;20258;-50
2021/11/16 10:58:36;;;;;;;11.98;7.47;;;;;;;;;;5034160;28;20199;-48
2021/11/16 11:01:07;;;;;;;37.42;21.88;;;;;;;;;;5046422;28;20425;-50
2021/11/16 11:03:43;;;;;;;53.00;33.17;;;;;;;;;;5033949;28;20192;-50
2021/11/16 11:06:27;;;;;;;38.67;23.95;;;;;;;;;;5031210;28;20474;-49
2021/11/16 11:08:54;;;;;;;43.38;22.48;;;;;;;;;;5033014;28;20198;-50
2021/11/16 11:11:20;;;;;;;48.65;23.70;;;;;;;;;;5034152;28;20179;-48
2021/11/16 11:13:47;;;;;;;38.63;21.85;;;;;;;;;;5033551;28;20210;-48
2021/11/16 11:16:13;;;;;;;38.97;19.67;;;;;;;;;;5033966;28;20270;-49
2021/11/16 11:18:41;;;;;;;40.95;19.38;;;;;;;;;;5034019;28;20187;-50
2021/11/16 11:21:09;;;;;;;37.45;19.25;;;;;;;;;;5033743;28;20199;-49
2021/11/16 11:23:45;;;;;;;33.33;19.02;;;;;;;;;;5033034;28;20198;-50
2021/11/16 11:26:34;;;;;;;29.83;18.65;;;;;;;;;;5032893;28;20207;-50
2021/11/16 11:29:25;;;;;;;30.67;16.63;;;;;;;;;;5033604;28;20164;-50
2021/11/16 11:31:58;;;;;;;35.63;16.63;;;;;;;;;;5033599;28;20587;-48
2021/11/16 11:34:32;;;;;;;34.78;16.63;;;;;;;;;;5035013;28;20263;-48
2021/11/16 11:37:02;;;;;;;26.88;15.82;;;;;;;;;;5033869;28;20267;-50
2021/11/16 11:39:31;;;;;;;24.80;14.57;;;;;;;;;;5032858;28;20220;-50
2021/11/16 11:41:58;;;;;;;28.08;14.60;;;;;;;;;;5032045;28;20207;-50
2021/11/16 11:44:26;;;;;;;25.85;15.07;;;;;;;;;;5023940;28;20204;-50
2021/11/16 11:46:57;;;;;;;23.02;14.57;;;;;;;;;;5023767;28;20242;-49
2021/11/16 11:49:24;;;;;;;25.83;13.40;;;;;;;;;;5024463;28;20272;-49
2021/11/16 11:51:51;;;;;;;32.60;16.55;;;;;;;;;;5023300;28;20168;-51
2021/11/16 11:54:19;;;;;;;44.22;20.05;;;;;;;;;;5030211;28;20249;-50
2021/11/16 11:56:45;;;;;;;66.90;27.45;;;;;;;;;;5025143;28;20234;-49
2021/11/16 11:59:13;;;;;;;115.85;38.25;;;;;;;;;;5023489;28;20237;-50
2021/11/16 12:01:39;;;;;;;217.93;66.25;;;;;;;;;;5025997;28;21160;-50
2021/11/16 12:04:05;;;;;;;339.05;104.93;;;;;;;;;;5021733;28;20224;-49
2021/11/16 12:06:33;;;;;;;482.80;159.68;;;;;;;;;;5025424;28;20224;-49
2021/11/16 12:09:00;;;;;;;528.47;183.52;;;;;;;;;;5023700;28;20180;-50
2021/11/16 12:11:27;;;;;;;529.97;186.32;;;;;;;;;;5023787;28;20191;-49
2021/11/16 12:13:54;;;;;;;504.08;171.30;;;;;;;;;;5022768;28;20508;-51
2021/11/16 12:16:45;;;;;;;465.77;155.82;;;;;;;;;;5023951;28;20379;-49
2021/11/16 12:19:12;;;;;;;436.83;139.77;;;;;;;;;;5028971;28;20176;-50
2021/11/16 12:21:41;;;;;;;418.23;135.88;;;;;;;;;;5032795;28;20175;-50
2021/11/16 12:24:15;;;;;;;419.27;131.77;;;;;;;;;;5027860;28;20199;-49
2021/11/16 12:26:53;;;;;;;387.73;123.78;;;;;;;;;;5031290;28;20502;-49
2021/11/16 12:29:21;;;;;;;374.00;121.43;;;;;;;;;;5028550;28;20697;-49
2021/11/16 12:31:49;;;;;;;386.40;123.53;;;;;;;;;;5029033;28;20842;-49
2021/11/16 12:34:32;;;;;;;394.05;119.07;;;;;;;;;;5024510;28;21574;-50
2021/11/16 12:36:58;;;;;;;373.90;118.65;;;;;;;;;;5029375;28;20230;-50
2021/11/16 12:39:25;;;;;;;382.05;119.47;;;;;;;;;;5031771;28;20180;-50
2021/11/16 12:41:56;;;;;;;364.90;116.22;;;;;;;;;;5032587;28;20607;-50
2021/11/16 12:44:31;;;;;;;337.13;109.82;;;;;;;;;;5035550;28;20235;-49
2021/11/16 12:47:04;;;;;;;339.17;109.05;;;;;;;;;;5031089;28;20202;-50
2021/11/16 12:49:32;;;;;;;308.63;103.93;;;;;;;;;;5030416;28;20275;-50
2021/11/16 12:51:59;;;;;;;290.58;97.53;;;;;;;;;;5030877;28;20199;-51
2021/11/16 12:54:27;;;;;;;279.17;91.88;;;;;;;;;;5029810;28;20183;-50
2021/11/16 12:56:53;;;;;;;255.00;84.78;;;;;;;;;;5026295;28;20177;-49
2021/11/16 12:59:34;;;;;;;249.95;81.43;;;;;;;;;;5035130;28;20286;-50
2021/11/16 13:02:02;;;;;;;242.90;84.45;;;;;;;;;;5031877;28;20185;-49
2021/11/16 13:04:41;;;;;;;233.32;75.00;;;;;;;;;;5025433;28;20215;-50
2021/11/16 13:07:26;;;;;;;188.63;66.82;;;;;;;;;;5027985;28;20180;-49
2021/11/16 13:09:53;;;;;;;172.63;56.00;;;;;;;;;;5034134;28;20184;-49
2021/11/16 13:12:35;;;;;;;206.07;60.38;;;;;;;;;;5033939;28;20180;-50
2021/11/16 13:15:08;;;;;;;161.27;50.65;;;;;;;;;;5031933;28;20188;-49
2021/11/16 13:17:43;;;;;;;164.88;50.88;;;;;;;;;;5032902;28;20598;-49
2021/11/16 13:20:12;;;;;;;145.20;45.15;;;;;;;;;;5031826;28;20248;-50
2021/11/16 13:22:52;;;;;;;132.80;43.22;;;;;;;;;;5035029;28;20202;-50
2021/11/16 13:25:37;;;;;;;140.23;45.03;;;;;;;;;;5031358;28;20207;-50
2021/11/16 13:28:04;;;;;;;144.82;45.08;;;;;;;;;;5034400;28;20606;-49
2021/11/16 13:30:30;;;;;;;135.63;45.70;;;;;;;;;;5033002;28;20180;-49
2021/11/16 13:32:56;;;;;;;151.80;43.95;;;;;;;;;;5032381;28;20197;-49
2021/11/16 13:35:23;;;;;;;129.82;43.15;;;;;;;;;;5028599;28;20642;-49
2021/11/16 13:37:50;;;;;;;137.52;44.90;;;;;;;;;;5033384;28;20196;-49
2021/11/16 13:40:23;;;;;;;121.88;41.10;;;;;;;;;;5035588;28;20245;-51
2021/11/16 13:42:51;;;;;;;120.60;39.67;;;;;;;;;;5033101;28;20587;-51
2021/11/16 13:45:17;;;;;;;115.05;39.47;;;;;;;;;;5034341;28;20211;-49
2021/11/16 13:47:47;;;;;;;123.57;40.75;;;;;;;;;;5033462;28;20219;-50
2021/11/16 13:50:24;;;;;;;105.25;38.28;;;;;;;;;;5034596;28;20559;-49
2021/11/16 13:52:58;;;;;;;122.28;41.50;;;;;;;;;;5034496;28;20191;-49
2021/11/16 13:55:29;;;;;;;112.35;38.60;;;;;;;;;;5029511;28;20187;-50
2021/11/16 13:57:57;;;;;;;112.47;37.28;;;;;;;;;;5035284;28;20243;-49
2021/11/16 14:00:34;;;;;;;114.38;37.42;;;;;;;;;;5034884;28;20282;-50
2021/11/16 14:03:02;;;;;;;103.25;36.47;;;;;;;;;;5033933;28;20230;-50
2021/11/16 14:05:48;;;;;;;84.13;33.70;;;;;;;;;;5033515;28;20199;-50
2021/11/16 14:08:16;;;;;;;103.45;36.05;;;;;;;;;;5028022;28;20183;-49
2021/11/16 14:10:43;;;;;;;104.68;35.60;;;;;;;;;;5032764;28;20263;-49
2021/11/16 14:13:12;;;;;;;91.80;34.53;;;;;;;;;;5038066;28;20594;-51
2021/11/16 14:15:38;;;;;;;93.43;34.20;;;;;;;;;;5034201;28;20187;-49
2021/11/16 14:18:06;;;;;;;85.78;32.13;;;;;;;;;;5039960;28;20556;-49
2021/11/16 14:20:34;;;;;;;91.35;32.78;;;;;;;;;;5035505;28;20172;-49
2021/11/16 14:23:12;;;;;;;89.85;32.90;;;;;;;;;;5033849;28;20202;-50
2021/11/16 14:25:42;;;;;;;84.50;32.70;;;;;;;;;;5030897;28;20207;-49
2021/11/16 14:28:08;;;;;;;88.88;32.17;;;;;;;;;;5030489;28;20466;-49
2021/11/16 14:30:35;;;;;;;81.70;31.50;;;;;;;;;;5034301;28;20207;-50
2021/11/16 14:33:05;;;;;;;84.68;32.17;;;;;;;;;;5033503;28;20196;-50
2021/11/16 14:35:32;;;;;;;78.30;29.33;;;;;;;;;;5034203;28;20188;-49
2021/11/16 14:37:58;;;;;;;76.97;29.15;;;;;;;;;;5034355;28;20203;-50
2021/11/16 14:40:25;;;;;;;72.22;27.95;;;;;;;;;;5034630;28;20183;-50
2021/11/16 14:42:51;;;;;;;68.07;26.80;;;;;;;;;;5033731;28;20246;-50
2021/11/16 14:45:18;;;;;;;66.03;24.63;;;;;;;;;;5028258;28;20284;-49
2021/11/16 14:47:46;;;;;;;70.35;25.20;;;;;;;;;;5032231;28;20275;-50
2021/11/16 14:50:16;;;;;;;66.90;24.75;;;;;;;;;;5033687;28;20712;-49